Time;durP1;ratioP1;P1;durP2;ratioP2;P2;SDS_P1;SDS_P2;PMS_P1;PMS_P2;Temp;Humidity;BMP_temperature;BMP_pressure;BME280_temperature;BME280_humidity;BME280_pressure;Samples;Min_cycle;Max_cycle;Signal;HPM_P1;HPM_P2
2023/07/26 00:01:03;;;;;;;6.63;2.72;;;;;;;-147.95;100.00;58458.38;4999840;28;20054;-73
2023/07/26 00:03:49;;;;;;;3.42;2.75;;;;;;;-147.95;100.00;58458.38;4998348;28;20056;-73
2023/07/26 00:06:35;;;;;;;12.45;3.17;;;;;;;-147.95;100.00;58458.38;4993751;28;20501;-73
2023/07/26 00:09:21;;;;;;;5.78;3.05;;;;;;;-147.95;100.00;58458.38;4973332;28;20038;-73
2023/07/26 00:12:07;;;;;;;5.07;3.08;;;;;;;-147.95;100.00;58458.38;5000796;28;20045;-73
2023/07/26 00:14:53;;;;;;;6.43;3.13;;;;;;;-147.95;100.00;58458.38;5001075;28;20050;-73
2023/07/26 00:17:39;;;;;;;4.40;3.10;;;;;;;-147.95;100.00;58458.38;4992452;28;20141;-73
2023/07/26 00:20:24;;;;;;;4.65;3.50;;;;;;;-147.95;100.00;58458.38;4993094;28;20047;-73
2023/07/26 00:23:10;;;;;;;7.35;3.50;;;;;;;-147.95;100.00;58458.38;5003061;28;20037;-73
2023/07/26 00:25:56;;;;;;;6.32;3.50;;;;;;;-147.95;100.00;58458.38;5003590;28;20121;-73
2023/07/26 00:28:42;;;;;;;10.75;4.00;;;;;;;-147.95;100.00;58458.38;5009560;28;20038;-73
2023/07/26 00:31:28;;;;;;;10.30;3.67;;;;;;;-147.95;100.00;58458.38;5010082;28;20524;-73
2023/07/26 00:34:13;;;;;;;5.18;3.58;;;;;;;-147.95;100.00;58458.38;5006458;28;20046;-73
2023/07/26 00:37:03;;;;;;;9.82;3.78;;;;;;;-147.95;100.00;58458.38;5007497;28;20038;-73
2023/07/26 00:39:49;;;;;;;6.28;3.92;;;;;;;-147.95;100.00;58458.38;5012516;28;20052;-72
2023/07/26 00:42:35;;;;;;;11.85;4.43;;;;;;;-147.95;100.00;58458.38;4997707;28;20528;-73
2023/07/26 00:45:21;;;;;;;6.10;3.95;;;;;;;-147.95;100.00;58458.38;5011682;28;20116;-71
2023/07/26 00:48:07;;;;;;;11.48;3.88;;;;;;;-147.95;100.00;58458.38;5004619;28;20045;-72
2023/07/26 00:50:53;;;;;;;4.88;3.53;;;;;;;-147.95;100.00;58458.38;5011591;28;20847;-71
2023/07/26 00:53:39;;;;;;;7.78;3.35;;;;;;;-147.95;100.00;58458.38;5011718;28;20184;-71
2023/07/26 00:56:25;;;;;;;5.05;3.40;;;;;;;-147.95;100.00;58458.38;5008152;28;20046;-71
2023/07/26 00:59:12;;;;;;;11.40;3.72;;;;;;;-147.95;100.00;58458.38;5006550;28;20035;-71
2023/07/26 01:01:58;;;;;;;7.22;3.97;;;;;;;-147.95;100.00;58458.38;5014052;28;20046;-71
2023/07/26 01:04:44;;;;;;;7.53;3.88;;;;;;;-147.95;100.00;58458.38;5012069;28;20046;-71
2023/07/26 01:07:59;;;;;;;10.38;3.58;;;;;;;-147.95;100.00;58458.38;4996647;28;20034;-71
2023/07/26 01:10:53;;;;;;;8.18;3.30;;;;;;;-147.95;100.00;58458.38;5011904;28;20071;-71
2023/07/26 01:13:51;;;;;;;3.70;3.20;;;;;;;-147.95;100.00;58458.38;5016692;28;20040;-71
2023/07/26 01:16:38;;;;;;;3.58;3.10;;;;;;;-147.95;100.00;58458.38;5013228;28;20045;-72
2023/07/26 01:19:23;;;;;;;6.28;3.28;;;;;;;-147.95;100.00;58458.38;5015518;28;20123;-71
2023/07/26 01:22:09;;;;;;;10.68;4.65;;;;;;;-147.95;100.00;58458.38;5013006;28;20038;-71
2023/07/26 01:24:56;;;;;;;8.57;4.05;;;;;;;-147.95;100.00;58458.38;4994211;28;20054;-71
2023/07/26 01:27:42;;;;;;;5.70;3.35;;;;;;;-147.95;100.00;58458.38;5008627;28;20042;-71
2023/07/26 01:30:30;;;;;;;10.00;4.65;;;;;;;-147.95;100.00;58458.38;5013496;28;20046;-71
2023/07/26 01:33:18;;;;;;;7.50;3.45;;;;;;;-147.95;100.00;58458.38;5011430;28;20037;-71
2023/07/26 01:36:04;;;;;;;7.85;3.55;;;;;;;-147.95;100.00;58458.38;5010985;28;20084;-71
2023/07/26 01:38:52;;;;;;;6.18;3.53;;;;;;;-147.95;100.00;58458.38;5012060;28;20089;-71
2023/07/26 01:41:39;;;;;;;5.50;3.80;;;;;;;-147.95;100.00;58458.38;5008986;28;20057;-72
2023/07/26 01:44:25;;;;;;;4.97;3.83;;;;;;;-147.95;100.00;58458.38;5025437;28;20474;-73
2023/07/26 01:47:11;;;;;;;6.82;4.05;;;;;;;-147.95;100.00;58458.38;4997050;28;20044;-71
2023/07/26 01:49:57;;;;;;;5.50;3.72;;;;;;;-147.95;100.00;58458.38;5006482;28;20049;-71
2023/07/26 01:52:42;;;;;;;12.05;4.03;;;;;;;-147.95;100.00;58458.38;5008748;28;20069;-72
2023/07/26 01:55:28;;;;;;;10.43;3.80;;;;;;;-147.95;100.00;58458.38;4984998;28;20121;-71
2023/07/26 01:58:14;;;;;;;4.40;3.90;;;;;;;-147.95;100.00;58458.38;4995110;28;20046;-70
2023/07/26 02:01:03;;;;;;;7.90;3.97;;;;;;;-147.95;100.00;58458.38;4992394;28;20460;-71
2023/07/26 02:03:49;;;;;;;6.95;4.47;;;;;;;-147.95;100.00;58458.38;5010512;28;20041;-71
2023/07/26 02:06:34;;;;;;;8.15;4.15;;;;;;;-147.95;100.00;58458.38;5007902;28;20038;-72
2023/07/26 02:09:20;;;;;;;7.53;4.05;;;;;;;-147.95;100.00;58458.38;5015753;28;20042;-71
2023/07/26 02:12:06;;;;;;;8.00;4.28;;;;;;;-147.95;100.00;58458.38;4998471;28;20052;-70
2023/07/26 02:14:52;;;;;;;7.32;3.85;;;;;;;-147.95;100.00;58458.38;4987763;28;20057;-72
2023/07/26 02:17:38;;;;;;;9.45;4.05;;;;;;;-147.95;100.00;58458.38;5004949;28;20061;-71
2023/07/26 02:20:23;;;;;;;9.30;4.70;;;;;;;-147.95;100.00;58458.38;5006971;28;20041;-72
2023/07/26 02:23:09;;;;;;;8.05;4.28;;;;;;;-147.95;100.00;58458.38;5008697;28;20038;-71
2023/07/26 02:25:55;;;;;;;8.20;4.55;;;;;;;-147.95;100.00;58458.38;5006556;28;20402;-71
2023/07/26 02:28:41;;;;;;;10.85;4.28;;;;;;;-147.95;100.00;58458.38;5005269;28;20042;-71
2023/07/26 02:31:26;;;;;;;7.22;4.63;;;;;;;-147.95;100.00;58458.38;5011191;28;20033;-70
2023/07/26 02:34:12;;;;;;;8.30;4.78;;;;;;;-147.95;100.00;58458.38;5006384;28;20137;-70
2023/07/26 02:36:58;;;;;;;5.80;3.85;;;;;;;-147.95;100.00;58458.38;5003544;28;21724;-71
2023/07/26 02:39:44;;;;;;;7.65;3.92;;;;;;;-147.95;100.00;58458.38;5019986;28;20057;-71
2023/07/26 02:42:29;;;;;;;5.43;4.25;;;;;;;-147.95;100.00;58458.38;5006842;28;20509;-72
2023/07/26 02:45:15;;;;;;;7.53;3.67;;;;;;;-147.95;100.00;58458.38;4981255;28;20125;-71
2023/07/26 02:48:01;;;;;;;8.80;4.32;;;;;;;-147.95;100.00;58458.38;4991616;28;20038;-71
2023/07/26 02:50:47;;;;;;;15.73;4.45;;;;;;;-147.95;100.00;58458.38;4996269;28;20516;-72
2023/07/26 02:53:32;;;;;;;8.52;3.97;;;;;;;-147.95;100.00;58458.38;4994220;28;20091;-72
2023/07/26 02:56:18;;;;;;;6.95;3.70;;;;;;;-147.95;100.00;58458.38;4991857;28;20045;-72
2023/07/26 02:59:04;;;;;;;5.25;3.75;;;;;;;-147.95;100.00;58458.38;4980457;28;20049;-71
2023/07/26 03:01:51;;;;;;;7.25;4.03;;;;;;;-147.95;100.00;58458.38;5006574;28;20096;-71
2023/07/26 03:04:36;;;;;;;9.27;3.72;;;;;;;-147.95;100.00;58458.38;4989704;28;20045;-71
2023/07/26 03:07:22;;;;;;;7.82;4.05;;;;;;;-147.95;100.00;58458.38;5003221;28;20169;-71
2023/07/26 03:10:08;;;;;;;10.00;4.47;;;;;;;-147.95;100.00;58458.38;4997948;28;20042;-71
2023/07/26 03:12:55;;;;;;;5.30;3.70;;;;;;;-147.95;100.00;58458.38;4987226;28;20046;-72
2023/07/26 03:15:40;;;;;;;7.53;4.15;;;;;;;-147.95;100.00;58458.38;5001573;28;20040;-71
2023/07/26 03:18:26;;;;;;;7.82;4.22;;;;;;;-147.95;100.00;58458.38;5009283;28;20772;-71
2023/07/26 03:21:12;;;;;;;9.63;4.00;;;;;;;-147.95;100.00;58458.38;4995101;28;20042;-71
2023/07/26 03:23:58;;;;;;;7.63;3.67;;;;;;;-147.95;100.00;58458.38;5005249;28;20049;-71
2023/07/26 03:26:43;;;;;;;7.22;3.90;;;;;;;-147.95;100.00;58458.38;5001308;28;20049;-71
2023/07/26 03:29:29;;;;;;;7.40;5.00;;;;;;;-147.95;100.00;58458.38;5011937;28;20041;-72
2023/07/26 03:32:15;;;;;;;6.03;3.90;;;;;;;-147.95;100.00;58458.38;5009069;28;20511;-71
2023/07/26 03:35:00;;;;;;;6.25;3.47;;;;;;;-147.95;100.00;58458.38;5010212;28;20726;-71
2023/07/26 03:37:46;;;;;;;6.07;3.40;;;;;;;-147.95;100.00;58458.38;5005455;28;20696;-71
2023/07/26 03:40:32;;;;;;;6.28;3.72;;;;;;;-147.95;100.00;58458.38;5007282;28;20141;-71
2023/07/26 03:43:18;;;;;;;6.97;3.33;;;;;;;-147.95;100.00;58458.38;5008627;28;20046;-73
2023/07/26 03:46:03;;;;;;;5.22;3.25;;;;;;;-147.95;100.00;58458.38;4999243;28;20050;-71
2023/07/26 03:48:49;;;;;;;5.85;3.17;;;;;;;-147.95;100.00;58458.38;4984724;28;20034;-71
2023/07/26 03:51:35;;;;;;;4.60;2.97;;;;;;;-147.95;100.00;58458.38;5021083;28;20642;-72
2023/07/26 03:54:21;;;;;;;6.38;4.03;;;;;;;-147.95;100.00;58458.38;5005960;28;20673;-72
2023/07/26 03:57:07;;;;;;;5.00;3.38;;;;;;;-147.95;100.00;58458.38;4995529;28;20045;-73
2023/07/26 03:59:53;;;;;;;10.55;3.58;;;;;;;-147.95;100.00;58458.38;5006341;28;20058;-71
2023/07/26 04:02:39;;;;;;;9.30;4.20;;;;;;;-147.95;100.00;58458.38;4991078;28;20058;-71
2023/07/26 04:05:25;;;;;;;8.85;4.57;;;;;;;-147.95;100.00;58458.38;5009588;28;20582;-71
2023/07/26 04:08:10;;;;;;;5.85;3.90;;;;;;;-147.95;100.00;58458.38;4996795;28;20068;-70
2023/07/26 04:11:01;;;;;;;6.53;4.35;;;;;;;-147.95;100.00;58458.38;5004029;28;20121;-72
2023/07/26 04:13:46;;;;;;;5.18;4.00;;;;;;;-147.95;100.00;58458.38;5010650;28;20046;-71
2023/07/26 04:16:32;;;;;;;8.27;4.30;;;;;;;-147.95;100.00;58458.38;5007968;28;20041;-72
2023/07/26 04:19:18;;;;;;;5.88;4.22;;;;;;;-147.95;100.00;58458.38;5004752;28;20038;-72
2023/07/26 04:22:04;;;;;;;5.28;4.07;;;;;;;-147.95;100.00;58458.38;5005754;28;20061;-71
2023/07/26 04:24:50;;;;;;;9.07;4.93;;;;;;;-147.95;100.00;58458.38;4983918;28;20069;-72
2023/07/26 04:27:35;;;;;;;6.75;4.63;;;;;;;-147.95;100.00;58458.38;5008390;28;20068;-70
2023/07/26 04:30:21;;;;;;;7.15;4.30;;;;;;;-147.95;100.00;58458.38;5004730;28;20050;-70
2023/07/26 04:33:07;;;;;;;6.57;4.35;;;;;;;-147.95;100.00;58458.38;5006986;28;20044;-70
2023/07/26 04:35:53;;;;;;;7.22;5.50;;;;;;;-147.95;100.00;58458.38;5005952;28;20133;-71
2023/07/26 04:38:38;;;;;;;9.15;5.00;;;;;;;-147.95;100.00;58458.38;5003910;28;20081;-73
2023/07/26 04:41:24;;;;;;;10.43;5.70;;;;;;;-147.95;100.00;58458.38;4995766;28;20400;-71
2023/07/26 04:44:10;;;;;;;11.23;5.93;;;;;;;-147.95;100.00;58458.38;5000222;28;20410;-71
2023/07/26 04:46:55;;;;;;;9.68;6.03;;;;;;;-147.95;100.00;58458.38;5001506;28;20046;-72
2023/07/26 04:49:42;;;;;;;9.57;6.60;;;;;;;-147.95;100.00;58458.38;5011271;28;20164;-72
2023/07/26 04:52:28;;;;;;;11.27;6.88;;;;;;;-147.95;100.00;58458.38;5010358;28;20243;-71
2023/07/26 04:55:14;;;;;;;11.73;6.25;;;;;;;-147.95;100.00;58458.38;5010555;28;20042;-72
2023/07/26 04:57:59;;;;;;;15.77;6.78;;;;;;;-147.95;100.00;58458.38;5018530;28;20096;-71
2023/07/26 05:00:45;;;;;;;8.48;6.45;;;;;;;-147.95;100.00;58458.38;5010645;28;20527;-72
2023/07/26 05:03:31;;;;;;;12.20;6.40;;;;;;;-147.95;100.00;58458.38;5006096;28;20503;-72
2023/07/26 05:06:17;;;;;;;11.90;6.78;;;;;;;-147.95;100.00;58458.38;5006205;28;20038;-73
2023/07/26 05:09:04;;;;;;;8.93;7.20;;;;;;;-147.95;100.00;58458.38;5009340;28;20362;-72
2023/07/26 05:11:50;;;;;;;13.27;7.68;;;;;;;-147.95;100.00;58458.38;4998848;28;20049;-72
2023/07/26 05:14:38;;;;;;;10.85;8.18;;;;;;;-147.95;100.00;58458.38;4998211;28;20053;-71
2023/07/26 05:17:24;;;;;;;10.93;7.57;;;;;;;-147.95;100.00;58458.38;5004971;28;20046;-72
2023/07/26 05:20:11;;;;;;;15.38;7.82;;;;;;;-147.95;100.00;58458.38;5012463;28;20042;-72
2023/07/26 05:22:57;;;;;;;12.85;7.20;;;;;;;-147.95;100.00;58458.38;5014289;28;20505;-72
2023/07/26 05:25:42;;;;;;;11.77;7.47;;;;;;;-147.95;100.00;58458.38;5013916;28;20133;-72
2023/07/26 05:28:28;;;;;;;11.25;7.60;;;;;;;-147.95;100.00;58458.38;5009188;28;20067;-72
2023/07/26 05:31:14;;;;;;;18.25;7.18;;;;;;;-147.95;100.00;58458.38;5006082;28;20042;-72
2023/07/26 05:33:59;;;;;;;9.52;7.25;;;;;;;-147.95;100.00;58458.38;4991808;28;20046;-71
2023/07/26 05:36:45;;;;;;;11.23;6.75;;;;;;;-147.95;100.00;58458.38;5018185;28;20046;-72
2023/07/26 05:39:32;;;;;;;9.82;6.65;;;;;;;-147.95;100.00;58458.38;5014122;28;20552;-72
2023/07/26 05:42:18;;;;;;;11.85;6.57;;;;;;;-147.95;100.00;58458.38;5015159;28;20042;-72
2023/07/26 05:45:04;;;;;;;15.63;6.60;;;;;;;-147.95;100.00;58458.38;5018426;28;20069;-72
2023/07/26 05:47:50;;;;;;;14.50;6.32;;;;;;;-147.95;100.00;58458.38;5017912;28;20041;-73
2023/07/26 05:50:36;;;;;;;11.68;6.68;;;;;;;-147.95;100.00;58458.38;4999471;28;20041;-72
2023/07/26 05:53:22;;;;;;;12.00;6.25;;;;;;;-147.95;100.00;58458.38;5009270;28;20512;-71
2023/07/26 05:56:08;;;;;;;12.32;6.20;;;;;;;-147.95;100.00;58458.38;5013439;28;20050;-72
2023/07/26 05:58:53;;;;;;;10.68;5.93;;;;;;;-147.95;100.00;58458.38;5003672;28;20062;-70
2023/07/26 06:01:39;;;;;;;9.20;5.28;;;;;;;-147.95;100.00;58458.38;5001673;28;20565;-71
2023/07/26 06:04:25;;;;;;;8.68;5.70;;;;;;;-147.95;100.00;58458.38;4984491;28;20034;-71
2023/07/26 06:07:11;;;;;;;13.52;6.05;;;;;;;-147.95;100.00;58458.38;5006855;28;20056;-71
2023/07/26 06:09:57;;;;;;;11.75;5.65;;;;;;;-147.95;100.00;58458.38;5007946;28;20851;-71
2023/07/26 06:12:43;;;;;;;11.68;5.28;;;;;;;-147.95;100.00;58458.38;5005786;28;20125;-70
2023/07/26 06:15:28;;;;;;;10.85;5.35;;;;;;;-147.95;100.00;58458.38;4989117;28;20042;-71
2023/07/26 06:18:14;;;;;;;13.13;5.60;;;;;;;-147.95;100.00;58458.38;4987637;28;20070;-71
2023/07/26 06:21:00;;;;;;;13.30;6.07;;;;;;;-147.95;100.00;58458.38;5002767;28;20046;-71
2023/07/26 06:23:46;;;;;;;14.68;5.63;;;;;;;-147.95;100.00;58458.38;5007278;28;20053;-71
2023/07/26 06:26:31;;;;;;;10.35;5.72;;;;;;;-147.95;100.00;58458.38;5006991;28;20034;-71
2023/07/26 06:29:17;;;;;;;14.82;6.00;;;;;;;-147.95;100.00;58458.38;5006423;28;20615;-72
2023/07/26 06:32:03;;;;;;;17.13;6.13;;;;;;;-147.95;100.00;58458.38;4992155;28;20049;-71
2023/07/26 06:34:49;;;;;;;14.98;6.00;;;;;;;-147.95;100.00;58458.38;5006793;28;20046;-72
2023/07/26 06:37:35;;;;;;;14.25;6.00;;;;;;;-147.95;100.00;58458.38;5017743;28;20045;-71
2023/07/26 06:40:21;;;;;;;16.13;6.63;;;;;;;-147.95;100.00;58458.38;5014370;28;20052;-71
2023/07/26 06:43:07;;;;;;;13.95;7.03;;;;;;;-147.95;100.00;58458.38;5020080;28;20060;-71
2023/07/26 06:45:53;;;;;;;15.68;7.03;;;;;;;-147.95;100.00;58458.38;5003973;28;20042;-71
2023/07/26 06:48:39;;;;;;;13.63;7.10;;;;;;;-147.95;100.00;58458.38;5008262;28;20110;-71
2023/07/26 06:51:24;;;;;;;20.70;8.38;;;;;;;-147.95;100.00;58458.38;5007007;28;20400;-71
2023/07/26 06:54:10;;;;;;;10.98;6.88;;;;;;;-147.95;100.00;58458.38;5012061;28;20030;-70
2023/07/26 06:56:56;;;;;;;15.95;7.07;;;;;;;-147.95;100.00;58458.38;4988324;28;20507;-71
2023/07/26 06:59:42;;;;;;;27.17;10.07;;;;;;;-147.95;100.00;58458.38;5008296;28;20048;-71
2023/07/26 07:02:27;;;;;;;17.38;8.40;;;;;;;-147.95;100.00;58458.38;5010117;28;20073;-71
2023/07/26 07:05:14;;;;;;;17.33;7.97;;;;;;;-147.95;100.00;58458.38;5002391;28;20398;-70
2023/07/26 07:08:00;;;;;;;15.38;7.60;;;;;;;-147.95;100.00;58458.38;5005407;28;20037;-71
2023/07/26 07:10:46;;;;;;;19.35;8.40;;;;;;;-147.95;100.00;58458.38;5003098;28;20473;-70
2023/07/26 07:13:36;;;;;;;17.58;8.35;;;;;;;-147.95;100.00;58458.38;5006902;28;20045;-71
2023/07/26 07:16:22;;;;;;;14.90;7.95;;;;;;;-147.95;100.00;58458.38;4999666;28;20093;-71
2023/07/26 07:19:07;;;;;;;28.98;8.65;;;;;;;-147.95;100.00;58458.38;5002664;28;20406;-71
2023/07/26 07:21:53;;;;;;;20.63;9.10;;;;;;;-147.95;100.00;58458.38;5000888;28;20057;-71
2023/07/26 07:24:39;;;;;;;19.00;8.23;;;;;;;-147.95;100.00;58458.38;5006256;28;20042;-72
2023/07/26 07:27:25;;;;;;;21.75;9.13;;;;;;;-147.95;100.00;58458.38;4989633;28;20405;-70
2023/07/26 07:30:11;;;;;;;16.85;9.15;;;;;;;-147.95;100.00;58458.38;5005042;28;20073;-71
2023/07/26 07:32:56;;;;;;;24.40;9.27;;;;;;;-147.95;100.00;58458.38;4997926;28;20571;-71
2023/07/26 07:35:42;;;;;;;21.38;8.43;;;;;;;-147.95;100.00;58458.38;5005970;28;20717;-70
2023/07/26 07:38:28;;;;;;;14.63;7.68;;;;;;;-147.95;100.00;58458.38;5000089;28;20049;-73
2023/07/26 07:41:14;;;;;;;24.38;9.35;;;;;;;-147.95;100.00;58458.38;5006491;28;20050;-71
2023/07/26 07:44:00;;;;;;;24.92;8.95;;;;;;;-147.95;100.00;58458.38;4999821;28;20044;-70
2023/07/26 07:46:46;;;;;;;16.25;8.30;;;;;;;-147.95;100.00;58458.38;4991485;28;20042;-71
2023/07/26 07:49:31;;;;;;;22.25;9.32;;;;;;;-147.95;100.00;58458.38;4998052;28;20088;-71
2023/07/26 07:52:17;;;;;;;18.17;10.05;;;;;;;-147.95;100.00;58458.38;5004906;28;20510;-73
2023/07/26 07:55:03;;;;;;;20.15;8.90;;;;;;;-147.95;100.00;58458.38;4994495;28;20033;-71
2023/07/26 07:57:49;;;;;;;23.15;9.77;;;;;;;-147.95;100.00;58458.38;5003180;28;20042;-72
2023/07/26 08:00:34;;;;;;;31.60;11.48;;;;;;;-147.95;100.00;58458.38;4989352;28;20461;-72
2023/07/26 08:03:20;;;;;;;27.08;11.13;;;;;;;-147.95;100.00;58458.38;5009801;28;20149;-72
2023/07/26 08:06:07;;;;;;;25.50;11.35;;;;;;;-147.95;100.00;58458.38;5007093;28;20121;-73
2023/07/26 08:08:53;;;;;;;37.78;8.73;;;;;;;-147.95;100.00;58458.38;5006326;28;20038;-71
2023/07/26 08:11:38;;;;;;;25.00;9.35;;;;;;;-147.95;100.00;58458.38;4998524;28;20413;-73
2023/07/26 08:14:24;;;;;;;6.10;3.33;;;;;;;-147.95;100.00;58458.38;4999948;28;20041;-72
2023/07/26 08:17:10;;;;;;;14.77;6.65;;;;;;;-147.95;100.00;58458.38;4991751;28;20032;-72
2023/07/26 08:19:55;;;;;;;17.27;9.10;;;;;;;-147.95;100.00;58458.38;5007337;28;20057;-72
2023/07/26 08:22:41;;;;;;;17.25;9.55;;;;;;;-147.95;100.00;58458.38;4998723;28;20411;-72
2023/07/26 08:25:27;;;;;;;24.83;11.70;;;;;;;-147.95;100.00;58458.38;4998931;28;20072;-72
2023/07/26 08:28:13;;;;;;;22.15;11.80;;;;;;;-147.95;100.00;58458.38;5008629;28;20037;-72
2023/07/26 08:30:59;;;;;;;24.35;12.95;;;;;;;-147.95;100.00;58458.38;5002422;28;20070;-72
2023/07/26 08:33:45;;;;;;;27.75;13.40;;;;;;;-147.95;100.00;58458.38;5007382;28;20041;-72
2023/07/26 08:36:31;;;;;;;23.08;12.20;;;;;;;-147.95;100.00;58458.38;4993586;28;20046;-73
2023/07/26 08:39:16;;;;;;;23.48;12.80;;;;;;;-147.95;100.00;58458.38;5005075;28;20065;-73
2023/07/26 08:42:03;;;;;;;33.70;14.75;;;;;;;-147.95;100.00;58458.38;4993938;28;20033;-72
2023/07/26 08:44:50;;;;;;;29.13;14.23;;;;;;;-147.95;100.00;58458.38;5013719;28;20132;-73
2023/07/26 08:47:36;;;;;;;33.25;13.98;;;;;;;-147.95;100.00;58458.38;5004811;28;20057;-73
2023/07/26 08:50:23;;;;;;;24.38;13.85;;;;;;;-147.95;100.00;58458.38;5020916;28;20037;-74
2023/07/26 08:53:08;;;;;;;27.50;13.50;;;;;;;-147.95;100.00;58458.38;5002790;28;20042;-73
2023/07/26 08:55:55;;;;;;;22.88;12.77;;;;;;;-147.95;100.00;58458.38;5011230;28;20036;-73
2023/07/26 08:58:42;;;;;;;24.33;12.00;;;;;;;-147.95;100.00;58458.38;4999026;28;20117;-73
2023/07/26 09:01:29;;;;;;;18.60;10.32;;;;;;;-147.95;100.00;58458.38;5006064;28;20126;-72
2023/07/26 09:04:14;;;;;;;19.33;12.20;;;;;;;-147.95;100.00;58458.38;5009287;28;20037;-74
2023/07/26 09:07:02;;;;;;;23.83;12.07;;;;;;;-147.95;100.00;58458.38;5010217;28;20064;-73
2023/07/26 09:09:48;;;;;;;22.73;11.80;;;;;;;-147.95;100.00;58458.38;5006049;28;20139;-73
2023/07/26 09:12:34;;;;;;;22.08;11.60;;;;;;;-147.95;100.00;58458.38;5006167;28;20038;-74
2023/07/26 09:15:20;;;;;;;17.02;10.55;;;;;;;-147.95;100.00;58458.38;5002196;28;20146;-72
2023/07/26 09:18:07;;;;;;;18.63;9.20;;;;;;;-147.95;100.00;58458.38;5003526;28;20497;-73
2023/07/26 09:21:03;;;;;;;16.38;9.07;;;;;;;-147.95;100.00;58458.38;5002696;28;20158;-74
2023/07/26 09:23:48;;;;;;;19.80;8.18;;;;;;;-147.95;100.00;58458.38;5006745;28;20042;-72
2023/07/26 09:26:37;;;;;;;12.90;8.27;;;;;;;-147.95;100.00;58458.38;5005657;28;20030;-73
2023/07/26 09:29:23;;;;;;;16.88;8.02;;;;;;;-147.95;100.00;58458.38;5000381;28;20038;-73
2023/07/26 09:32:08;;;;;;;12.27;7.88;;;;;;;-147.95;100.00;58458.38;5002173;28;20486;-72
2023/07/26 09:34:59;;;;;;;15.45;7.22;;;;;;;-147.95;100.00;58458.38;5010931;28;20117;-72
2023/07/26 09:37:45;;;;;;;16.15;8.00;;;;;;;-147.95;100.00;58458.38;5010919;28;20049;-73
2023/07/26 09:40:34;;;;;;;13.43;7.70;;;;;;;-147.95;100.00;58458.38;4999622;28;20493;-72
2023/07/26 09:43:31;;;;;;;13.73;7.72;;;;;;;-147.95;100.00;58458.38;4992203;28;20054;-72
2023/07/26 09:46:18;;;;;;;14.98;6.47;;;;;;;-147.95;100.00;58458.38;4994160;28;20580;-74
2023/07/26 09:49:05;;;;;;;13.80;6.05;;;;;;;-147.95;100.00;58458.38;5010401;28;20113;-72
2023/07/26 09:51:54;;;;;;;12.50;6.55;;;;;;;-147.95;100.00;58458.38;4986354;28;20042;-73
2023/07/26 09:54:40;;;;;;;10.18;6.22;;;;;;;-147.95;100.00;58458.38;4992327;28;20410;-73
2023/07/26 09:57:28;;;;;;;14.88;7.40;;;;;;;-147.95;100.00;58458.38;5010972;28;20072;-73
2023/07/26 10:00:15;;;;;;;9.10;5.38;;;;;;;-147.95;100.00;58458.38;5006905;28;20096;-72
2023/07/26 10:03:05;;;;;;;11.32;4.65;;;;;;;-147.95;100.00;58458.38;5007362;28;20085;-72
2023/07/26 10:05:53;;;;;;;9.75;4.97;;;;;;;-147.95;100.00;58458.38;5002678;28;20042;-72
2023/07/26 10:08:41;;;;;;;9.38;5.30;;;;;;;-147.95;100.00;58458.38;5003890;28;20689;-72
2023/07/26 10:11:28;;;;;;;7.78;4.93;;;;;;;-147.95;100.00;58458.38;5008676;28;20034;-72
2023/07/26 10:14:17;;;;;;;9.32;5.05;;;;;;;-147.95;100.00;58458.38;5001201;28;20037;-72
2023/07/26 10:17:06;;;;;;;11.88;6.15;;;;;;;-147.95;100.00;58458.38;5009358;28;20252;-73
2023/07/26 10:19:55;;;;;;;7.70;4.88;;;;;;;-147.95;100.00;58458.38;5006794;28;20081;-72
2023/07/26 10:22:42;;;;;;;11.55;6.40;;;;;;;-147.95;100.00;58458.38;5005143;28;20038;-72
2023/07/26 10:25:28;;;;;;;17.63;7.03;;;;;;;-147.95;100.00;58458.38;4999674;28;20394;-72
2023/07/26 10:28:15;;;;;;;17.20;6.70;;;;;;;-147.95;100.00;58458.38;4998592;28;20108;-72
2023/07/26 10:31:01;;;;;;;10.35;5.40;;;;;;;-147.95;100.00;58458.38;5004469;28;20042;-72
2023/07/26 10:33:47;;;;;;;8.02;4.35;;;;;;;-147.95;100.00;58458.38;4997804;28;20037;-72
2023/07/26 10:36:34;;;;;;;8.30;3.45;;;;;;;-147.95;100.00;58458.38;5001577;28;20041;-72
2023/07/26 10:39:34;;;;;;;7.38;3.33;;;;;;;-147.95;100.00;58458.38;4995222;28;20034;-72
2023/07/26 10:42:28;;;;;;;9.35;3.58;;;;;;;-147.95;100.00;58458.38;5006834;28;20033;-72
2023/07/26 10:45:38;;;;;;;7.90;2.78;;;;;;;-147.95;100.00;58458.38;4990359;28;20057;-72
2023/07/26 10:48:34;;;;;;;4.47;2.10;;;;;;;-147.95;100.00;58458.38;5003451;28;20045;-72
2023/07/26 10:51:48;;;;;;;11.05;2.83;;;;;;;-147.95;100.00;58458.38;4994957;28;20040;-73
2023/07/26 10:54:43;;;;;;;3.92;2.58;;;;;;;-147.95;100.00;58458.38;5008865;28;20087;-73
2023/07/26 10:57:36;;;;;;;4.35;3.05;;;;;;;-147.95;100.00;58458.38;5007693;28;20038;-72
2023/07/26 11:00:33;;;;;;;8.23;2.72;;;;;;;-147.95;100.00;58458.38;5002427;28;20046;-74
2023/07/26 11:03:25;;;;;;;5.53;3.42;;;;;;;-147.95;100.00;58458.38;5007524;28;20536;-72
2023/07/26 11:06:10;;;;;;;6.05;2.80;;;;;;;-147.95;100.00;58458.38;5002112;28;20457;-73
2023/07/26 11:08:57;;;;;;;5.32;2.53;;;;;;;-147.95;100.00;58458.38;5004597;28;20405;-72
2023/07/26 11:11:59;;;;;;;3.25;2.17;;;;;;;-147.95;100.00;58458.38;4997967;28;20045;-73
2023/07/26 11:14:48;;;;;;;6.27;2.53;;;;;;;-147.95;100.00;58458.38;4993799;28;20045;-73
2023/07/26 11:17:39;;;;;;;4.90;2.45;;;;;;;-147.95;100.00;58458.38;4995966;28;20466;-72
2023/07/26 11:20:24;;;;;;;9.10;2.80;;;;;;;-147.95;100.00;58458.38;5007395;28;20069;-73
2023/07/26 11:23:28;;;;;;;6.95;2.85;;;;;;;-147.95;100.00;58458.38;5000725;28;20545;-72
2023/07/26 11:26:14;;;;;;;5.63;2.67;;;;;;;-147.95;100.00;58458.38;4994072;28;20064;-73
2023/07/26 11:29:00;;;;;;;4.32;2.30;;;;;;;-147.95;100.00;58458.38;5005047;28;20045;-73
2023/07/26 11:31:48;;;;;;;6.18;2.70;;;;;;;-147.95;100.00;58458.38;5000613;28;20045;-72
2023/07/26 11:34:34;;;;;;;6.63;2.97;;;;;;;-147.95;100.00;58458.38;5007460;28;20045;-73
2023/07/26 11:37:19;;;;;;;6.70;2.88;;;;;;;-147.95;100.00;58458.38;4989144;28;20042;-74
2023/07/26 11:40:09;;;;;;;6.88;3.35;;;;;;;-147.95;100.00;58458.38;5002890;28;20049;-73
2023/07/26 11:42:56;;;;;;;6.70;2.97;;;;;;;-147.95;100.00;58458.38;5000584;28;20053;-72
2023/07/26 11:45:43;;;;;;;7.97;3.30;;;;;;;-147.95;100.00;58458.38;5001448;28;20068;-73
2023/07/26 11:48:32;;;;;;;8.20;2.90;;;;;;;-147.95;100.00;58458.38;5000801;28;20103;-73
2023/07/26 11:51:18;;;;;;;5.22;2.70;;;;;;;-147.95;100.00;58458.38;5006888;28;20045;-73
2023/07/26 11:54:09;;;;;;;5.85;2.85;;;;;;;-147.95;100.00;58458.38;5005538;28;20045;-72
2023/07/26 11:56:55;;;;;;;6.47;3.13;;;;;;;-147.95;100.00;58458.38;5009451;28;20513;-72
2023/07/26 11:59:42;;;;;;;5.18;2.78;;;;;;;-147.95;100.00;58458.38;5006859;28;20103;-72
2023/07/26 12:02:29;;;;;;;6.47;3.25;;;;;;;-147.95;100.00;58458.38;5006269;28;20137;-72
2023/07/26 12:05:25;;;;;;;4.55;2.95;;;;;;;-147.95;100.00;58458.38;5006587;28;20050;-73
2023/07/26 12:08:12;;;;;;;6.60;3.33;;;;;;;-147.95;100.00;58458.38;4993640;28;20026;-72
2023/07/26 12:11:05;;;;;;;6.30;2.42;;;;;;;-147.95;100.00;58458.38;4992887;28;20053;-72
2023/07/26 12:13:56;;;;;;;7.82;2.75;;;;;;;-147.95;100.00;58458.38;5000391;28;20045;-72
2023/07/26 12:16:53;;;;;;;5.05;2.80;;;;;;;-147.95;100.00;58458.38;5006540;28;20068;-72
2023/07/26 12:19:44;;;;;;;4.78;2.67;;;;;;;-147.95;100.00;58458.38;5004434;28;20070;-72
2023/07/26 12:22:30;;;;;;;6.70;3.50;;;;;;;-147.95;100.00;58458.38;5004146;28;20061;-73
2023/07/26 12:25:16;;;;;;;7.85;3.22;;;;;;;-147.95;100.00;58458.38;5002195;28;20466;-73
2023/07/26 12:28:05;;;;;;;6.13;3.95;;;;;;;-147.95;100.00;58458.38;5001878;28;20057;-72
2023/07/26 12:30:55;;;;;;;7.55;3.63;;;;;;;-147.95;100.00;58458.38;5003192;28;20046;-72
2023/07/26 12:33:56;;;;;;;9.25;3.42;;;;;;;-147.95;100.00;58458.38;5004525;28;20114;-71